Time;durP1;ratioP1;P1;durP2;ratioP2;P2;SDS_P1;SDS_P2;PMS_P1;PMS_P2;Temp;Humidity;BMP_temperature;BMP_pressure;BME280_temperature;BME280_humidity;BME280_pressure;Samples;Min_cycle;Max_cycle;Signal;HPM_P1;HPM_P2
2023/11/11 00:01:56;;;;;;;2.27;1.57;;;8.10;98.00;;;;;;5011345;28;20455;-67
2023/11/11 00:04:23;;;;;;;2.20;1.60;;;8.20;98.00;;;;;;5011402;28;20861;-67
2023/11/11 00:06:52;;;;;;;1.77;1.50;;;8.10;98.00;;;;;;5011037;28;20439;-68
2023/11/11 00:09:19;;;;;;;2.87;1.60;;;8.20;98.00;;;;;;4994305;28;20451;-67
2023/11/11 00:11:47;;;;;;;1.60;1.40;;;8.20;98.00;;;;;;5011120;28;20667;-68
2023/11/11 00:14:16;;;;;;;3.30;1.43;;;8.10;98.00;;;;;;5011307;28;20498;-68
2023/11/11 00:16:45;;;;;;;2.80;1.37;;;8.10;98.00;;;;;;5011130;28;20466;-68
2023/11/11 00:19:13;;;;;;;2.13;1.30;;;8.10;98.00;;;;;;5011245;28;20862;-67
2023/11/11 00:21:42;;;;;;;1.73;1.20;;;8.10;98.00;;;;;;5011181;28;20869;-67
2023/11/11 00:24:11;;;;;;;1.93;1.30;;;8.10;98.00;;;;;;5010930;28;20462;-67
2023/11/11 00:26:38;;;;;;;2.60;1.40;;;8.20;98.00;;;;;;5010779;28;20462;-67
2023/11/11 00:29:06;;;;;;;1.40;1.30;;;8.20;98.00;;;;;;5011761;28;20459;-67
2023/11/11 00:31:33;;;;;;;1.30;1.17;;;8.30;98.00;;;;;;5011492;28;20848;-68
2023/11/11 00:34:01;;;;;;;1.70;1.40;;;8.30;98.00;;;;;;5011494;28;20449;-68
2023/11/11 00:36:28;;;;;;;2.23;1.33;;;8.40;98.00;;;;;;5010677;28;20505;-67
2023/11/11 00:38:55;;;;;;;2.87;1.60;;;8.40;98.00;;;;;;5012786;28;20489;-67
2023/11/11 00:41:25;;;;;;;3.00;1.70;;;8.40;98.00;;;;;;5014571;28;20973;-67
2023/11/11 00:43:52;;;;;;;1.80;1.47;;;8.40;98.00;;;;;;5014593;28;20447;-67
2023/11/11 00:46:19;;;;;;;1.97;1.77;;;8.30;98.00;;;;;;5014515;28;20467;-67
2023/11/11 00:48:54;;;;;;;1.67;1.40;;;8.20;98.00;;;;;;5014587;28;20549;-68
2023/11/11 00:51:21;;;;;;;7.03;1.60;;;8.20;98.00;;;;;;5014284;28;20497;-67
2023/11/11 00:53:48;;;;;;;1.40;1.20;;;8.20;98.00;;;;;;5014416;28;20808;-67
2023/11/11 00:56:17;;;;;;;1.57;1.30;;;8.10;98.00;;;;;;5014624;28;20602;-68
2023/11/11 00:58:49;;;;;;;1.23;1.20;;;8.10;98.00;;;;;;5014448;28;20444;-68
2023/11/11 01:01:16;;;;;;;1.30;1.20;;;8.10;98.00;;;;;;5014339;28;20461;-67
2023/11/11 01:03:45;;;;;;;1.20;1.10;;;8.10;98.00;;;;;;5014592;28;20497;-67
2023/11/11 01:06:12;;;;;;;1.60;1.40;;;8.10;98.00;;;;;;5014763;28;20465;-67
2023/11/11 01:08:40;;;;;;;1.63;1.23;;;8.10;98.00;;;;;;5014356;28;20461;-67
2023/11/11 01:11:08;;;;;;;1.87;1.33;;;8.10;98.00;;;;;;5013804;28;20862;-67
2023/11/11 01:13:36;;;;;;;1.33;1.10;;;8.10;98.00;;;;;;5014158;28;20477;-67
2023/11/11 01:16:05;;;;;;;1.60;1.20;;;8.20;98.00;;;;;;5013993;28;20460;-68
2023/11/11 01:18:32;;;;;;;1.20;1.10;;;8.20;98.00;;;;;;5014088;28;20460;-67
2023/11/11 01:21:02;;;;;;;5.07;1.20;;;8.10;98.00;;;;;;5013923;28;20442;-68
2023/11/11 01:23:30;;;;;;;1.73;1.23;;;8.10;98.00;;;;;;5012877;28;21042;-67
2023/11/11 01:25:58;;;;;;;1.20;1.10;;;8.10;98.00;;;;;;5013862;28;21013;-67
2023/11/11 01:28:25;;;;;;;1.40;1.20;;;8.10;98.00;;;;;;5013825;28;20528;-68
2023/11/11 01:30:54;;;;;;;1.50;1.20;;;8.10;98.00;;;;;;5013669;28;20455;-68
2023/11/11 01:33:22;;;;;;;1.30;1.20;;;8.10;98.00;;;;;;5013322;28;20846;-68
2023/11/11 01:35:50;;;;;;;1.60;1.20;;;8.00;98.00;;;;;;5013511;28;20453;-67
2023/11/11 01:38:17;;;;;;;1.87;1.10;;;8.10;98.00;;;;;;5013754;28;20508;-67
2023/11/11 01:40:45;;;;;;;1.20;1.10;;;8.00;98.00;;;;;;5013397;28;20468;-67
2023/11/11 01:43:13;;;;;;;4.23;1.20;;;7.90;98.00;;;;;;5013657;28;20462;-67
2023/11/11 01:45:43;;;;;;;1.37;1.10;;;7.90;98.00;;;;;;5013395;28;20451;-67
2023/11/11 01:48:11;;;;;;;1.20;1.10;;;7.90;98.00;;;;;;5013301;28;20454;-67
2023/11/11 01:50:41;;;;;;;1.50;1.00;;;7.90;98.00;;;;;;5012611;28;20535;-68
2023/11/11 01:53:10;;;;;;;1.67;1.13;;;8.00;98.00;;;;;;5013297;28;20494;-67
2023/11/11 01:55:37;;;;;;;1.77;1.20;;;8.00;98.00;;;;;;5013232;28;20462;-67
2023/11/11 01:58:05;;;;;;;1.43;1.20;;;8.00;98.00;;;;;;5013250;28;20550;-67
2023/11/11 02:00:35;;;;;;;1.30;1.10;;;8.00;98.00;;;;;;5012813;28;20495;-68
2023/11/11 02:03:02;;;;;;;1.60;1.40;;;7.90;98.00;;;;;;5013072;28;20881;-67
2023/11/11 02:05:30;;;;;;;1.20;1.10;;;7.90;98.00;;;;;;5012789;28;20470;-67
2023/11/11 02:07:59;;;;;;;1.50;1.10;;;7.90;98.00;;;;;;5011671;28;20533;-67
2023/11/11 02:10:27;;;;;;;1.20;1.10;;;7.90;98.00;;;;;;5012746;28;20569;-67
2023/11/11 02:12:55;;;;;;;1.20;1.10;;;7.90;98.00;;;;;;5012768;28;21021;-68
2023/11/11 02:15:23;;;;;;;1.20;1.10;;;7.90;98.00;;;;;;5012534;28;20544;-67
2023/11/11 02:17:50;;;;;;;1.27;1.10;;;7.90;98.00;;;;;;5012728;28;20457;-67
2023/11/11 02:20:17;;;;;;;1.23;1.00;;;7.90;98.00;;;;;;5012653;28;20456;-67
2023/11/11 02:22:44;;;;;;;1.20;1.20;;;7.90;98.00;;;;;;5012929;28;20486;-67
2023/11/11 02:25:13;;;;;;;1.40;1.10;;;7.90;98.00;;;;;;5012608;28;20984;-67
2023/11/11 02:27:42;;;;;;;1.30;1.10;;;8.00;98.00;;;;;;5011578;28;20451;-67
2023/11/11 02:30:11;;;;;;;2.90;1.10;;;8.10;98.00;;;;;;5012351;28;20454;-67
2023/11/11 02:32:38;;;;;;;1.20;1.03;;;8.10;98.00;;;;;;5012409;28;20573;-67
2023/11/11 02:35:06;;;;;;;1.30;1.10;;;8.10;98.00;;;;;;5012249;28;20476;-67
2023/11/11 02:37:33;;;;;;;1.90;1.20;;;8.10;98.00;;;;;;5013055;28;20917;-67
2023/11/11 02:40:00;;;;;;;1.20;1.00;;;8.10;98.00;;;;;;5012174;28;20554;-68
2023/11/11 02:42:29;;;;;;;1.27;1.00;;;8.20;98.00;;;;;;5012196;28;20463;-67
2023/11/11 02:44:57;;;;;;;2.17;1.10;;;8.20;98.00;;;;;;5012013;28;20866;-68
2023/11/11 02:47:24;;;;;;;1.50;1.30;;;8.20;98.00;;;;;;5011990;28;20457;-67
2023/11/11 02:49:52;;;;;;;1.20;1.00;;;8.10;98.00;;;;;;5011944;28;20456;-67
2023/11/11 02:52:19;;;;;;;1.30;1.10;;;8.10;98.00;;;;;;5012147;28;20487;-67
2023/11/11 02:54:46;;;;;;;1.43;1.00;;;8.00;98.00;;;;;;5012455;28;20483;-67
2023/11/11 02:57:13;;;;;;;1.30;1.00;;;7.90;98.00;;;;;;5011976;28;20457;-68
2023/11/11 02:59:44;;;;;;;1.20;1.00;;;7.80;98.00;;;;;;5012110;28;20457;-67
2023/11/11 03:02:12;;;;;;;2.43;1.17;;;7.80;98.00;;;;;;5010184;28;20851;-67
2023/11/11 03:04:39;;;;;;;2.20;1.10;;;7.80;98.00;;;;;;5011946;28;20534;-67
2023/11/11 03:07:06;;;;;;;1.33;1.10;;;7.70;98.00;;;;;;5011091;28;20458;-67
2023/11/11 03:09:34;;;;;;;1.43;1.10;;;7.60;98.00;;;;;;5010807;28;20458;-67
2023/11/11 03:12:01;;;;;;;1.30;1.03;;;7.60;98.00;;;;;;5011705;28;20483;-67
2023/11/11 03:14:28;;;;;;;1.30;1.07;;;7.40;98.00;;;;;;5011604;28;20457;-67
2023/11/11 03:16:57;;;;;;;1.20;1.00;;;7.30;98.00;;;;;;5011532;28;20446;-67
2023/11/11 03:19:25;;;;;;;1.13;1.00;;;7.10;98.00;;;;;;5011739;28;20969;-67
2023/11/11 03:21:52;;;;;;;1.97;1.10;;;7.10;98.00;;;;;;5011572;28;20982;-67
2023/11/11 03:24:19;;;;;;;1.30;1.10;;;7.10;98.00;;;;;;5011633;28;20443;-67
2023/11/11 03:26:46;;;;;;;1.17;1.03;;;7.10;98.00;;;;;;5011689;28;20510;-67
2023/11/11 03:29:13;;;;;;;1.17;1.00;;;7.10;98.00;;;;;;5011434;28;20459;-67
2023/11/11 03:31:40;;;;;;;1.10;0.97;;;7.10;98.00;;;;;;5011296;28;20455;-67
2023/11/11 03:34:09;;;;;;;1.10;1.00;;;7.10;98.00;;;;;;5011429;28;20457;-67
2023/11/11 03:36:36;;;;;;;1.10;0.97;;;7.10;98.00;;;;;;5011782;28;20452;-67
2023/11/11 03:39:03;;;;;;;1.20;1.00;;;7.10;98.00;;;;;;5011734;28;20484;-67
2023/11/11 03:41:30;;;;;;;1.40;1.10;;;7.00;98.00;;;;;;5011291;28;20478;-67
2023/11/11 03:43:57;;;;;;;1.50;1.00;;;7.00;98.00;;;;;;5011229;28;20463;-67
2023/11/11 03:46:24;;;;;;;1.67;1.10;;;7.00;98.00;;;;;;5011303;28;20456;-67
2023/11/11 03:48:51;;;;;;;1.30;1.10;;;7.10;98.00;;;;;;5011503;28;20484;-67
2023/11/11 03:51:20;;;;;;;1.30;1.20;;;7.10;98.00;;;;;;5011491;28;20454;-67
2023/11/11 03:53:47;;;;;;;1.37;1.10;;;7.00;98.00;;;;;;5011229;28;20506;-67
2023/11/11 03:56:14;;;;;;;2.30;1.50;;;7.10;98.00;;;;;;5011059;28;20464;-67
2023/11/11 03:58:41;;;;;;;1.43;1.20;;;7.10;98.00;;;;;;5011273;28;20820;-67
2023/11/11 04:01:10;;;;;;;1.63;1.10;;;7.10;98.00;;;;;;5011200;28;20451;-67
2023/11/11 04:03:39;;;;;;;1.67;1.20;;;7.10;98.00;;;;;;5011005;28;20453;-67
2023/11/11 04:06:09;;;;;;;1.27;1.10;;;7.20;98.00;;;;;;5010899;28;20537;-67
2023/11/11 04:08:39;;;;;;;2.37;1.40;;;7.20;98.00;;;;;;5011465;28;20538;-67
2023/11/11 04:11:07;;;;;;;1.50;1.30;;;7.20;98.00;;;;;;5010968;28;20468;-67
2023/11/11 04:13:35;;;;;;;1.40;1.13;;;7.30;98.00;;;;;;5013858;28;20514;-67
2023/11/11 04:16:03;;;;;;;1.50;1.30;;;7.30;98.00;;;;;;5014863;28;20514;-67
2023/11/11 04:18:33;;;;;;;2.13;1.40;;;7.40;98.00;;;;;;5014967;28;20461;-67
2023/11/11 04:21:00;;;;;;;1.83;1.40;;;7.50;98.00;;;;;;5014835;28;20479;-67
2023/11/11 04:23:28;;;;;;;2.90;1.40;;;7.50;98.00;;;;;;5014863;28;20462;-67
2023/11/11 04:25:57;;;;;;;2.07;1.40;;;7.50;98.00;;;;;;5014592;28;20466;-67
2023/11/11 04:28:24;;;;;;;1.97;1.30;;;7.50;98.00;;;;;;5014880;28;20546;-67
2023/11/11 04:30:51;;;;;;;2.23;1.50;;;7.50;98.00;;;;;;5014728;28;20487;-67
2023/11/11 04:33:19;;;;;;;1.77;1.40;;;7.50;98.00;;;;;;5015075;28;20493;-68
2023/11/11 04:35:46;;;;;;;1.77;1.43;;;7.50;98.00;;;;;;5014900;28;20879;-67
2023/11/11 04:38:13;;;;;;;2.20;1.40;;;7.50;98.00;;;;;;5014855;28;20461;-67
2023/11/11 04:40:43;;;;;;;1.60;1.30;;;7.50;98.00;;;;;;5014828;28;20459;-67
2023/11/11 04:43:11;;;;;;;1.63;1.30;;;7.60;98.00;;;;;;5013261;28;20455;-67
2023/11/11 04:45:38;;;;;;;1.80;1.30;;;7.60;98.00;;;;;;5014567;28;20516;-67
2023/11/11 04:48:06;;;;;;;2.07;1.37;;;7.60;98.00;;;;;;5013483;28;20509;-67
2023/11/11 04:50:33;;;;;;;1.97;1.40;;;7.60;98.00;;;;;;5014280;28;20465;-67
2023/11/11 04:53:00;;;;;;;1.50;1.27;;;7.60;98.00;;;;;;5014197;28;21001;-67
2023/11/11 04:55:29;;;;;;;1.70;1.23;;;7.60;98.00;;;;;;5014251;28;20459;-67
2023/11/11 04:57:56;;;;;;;1.77;1.30;;;7.70;98.00;;;;;;5014061;28;20949;-67
2023/11/11 05:00:24;;;;;;;1.40;1.23;;;7.60;98.00;;;;;;5013305;28;20450;-67
2023/11/11 05:02:51;;;;;;;1.53;1.30;;;7.60;98.00;;;;;;5014099;28;20566;-67
2023/11/11 05:05:20;;;;;;;1.73;1.53;;;7.70;98.00;;;;;;5014100;28;20464;-67
2023/11/11 05:07:47;;;;;;;1.70;1.40;;;7.70;98.00;;;;;;5014303;28;20539;-67
2023/11/11 05:10:15;;;;;;;2.37;1.60;;;7.60;98.00;;;;;;5014164;28;20465;-67
2023/11/11 05:12:42;;;;;;;1.50;1.20;;;7.60;98.00;;;;;;5012830;28;20475;-67
2023/11/11 05:15:14;;;;;;;1.57;1.43;;;7.60;98.00;;;;;;5013942;28;20541;-67
2023/11/11 05:17:44;;;;;;;1.73;1.30;;;7.50;98.00;;;;;;5013929;28;20494;-67
2023/11/11 05:20:13;;;;;;;2.37;1.30;;;7.60;98.00;;;;;;5013733;28;20944;-67
2023/11/11 05:22:41;;;;;;;1.83;1.50;;;7.50;98.00;;;;;;5013815;28;21034;-67
2023/11/11 05:25:10;;;;;;;2.30;1.50;;;7.50;98.00;;;;;;5012799;28;20444;-67
2023/11/11 05:27:37;;;;;;;1.50;1.50;;;7.50;98.00;;;;;;5013619;28;20456;-67
2023/11/11 05:30:05;;;;;;;1.67;1.50;;;7.50;98.00;;;;;;5013349;28;20570;-67
2023/11/11 05:32:35;;;;;;;2.13;1.50;;;7.40;98.00;;;;;;5013516;28;21121;-67
2023/11/11 05:35:04;;;;;;;1.80;1.50;;;7.40;98.00;;;;;;5013570;28;20489;-67
2023/11/11 05:37:31;;;;;;;2.03;1.50;;;7.40;98.00;;;;;;5013523;28;20487;-67
2023/11/11 05:39:58;;;;;;;3.20;1.97;;;7.30;98.00;;;;;;5013293;28;20474;-67
2023/11/11 05:42:25;;;;;;;1.73;1.60;;;7.30;98.00;;;;;;5013386;28;20459;-67
2023/11/11 05:44:52;;;;;;;2.53;1.70;;;7.20;98.00;;;;;;5013174;28;20469;-68
2023/11/11 05:47:19;;;;;;;1.60;1.40;;;7.20;98.00;;;;;;5013439;28;20460;-67
2023/11/11 05:49:46;;;;;;;1.60;1.30;;;7.30;98.00;;;;;;5013235;28;20817;-67
2023/11/11 05:52:15;;;;;;;3.07;1.60;;;7.40;98.00;;;;;;5013163;28;20459;-67
2023/11/11 05:54:42;;;;;;;4.30;1.60;;;7.40;98.00;;;;;;5013095;28;20509;-67
2023/11/11 05:57:09;;;;;;;2.30;1.83;;;7.40;98.00;;;;;;5013179;28;20483;-67
2023/11/11 05:59:36;;;;;;;1.77;1.30;;;7.30;98.00;;;;;;5013050;28;20501;-67
2023/11/11 06:02:04;;;;;;;1.90;1.47;;;7.40;98.00;;;;;;5012904;28;20547;-67
2023/11/11 06:04:34;;;;;;;1.93;1.60;;;7.40;98.00;;;;;;5013066;28;20868;-68
2023/11/11 06:07:02;;;;;;;2.07;1.57;;;7.30;98.00;;;;;;5013050;28;20912;-67
2023/11/11 06:12:01;;;;;;;2.23;1.57;;;7.50;98.00;;;;;;5011374;28;20653;-68
2023/11/11 06:14:28;;;;;;;1.77;1.50;;;7.50;98.00;;;;;;5013209;28;20484;-70
2023/11/11 06:16:55;;;;;;;2.00;1.53;;;7.40;98.00;;;;;;5012873;28;20460;-68
2023/11/11 06:19:24;;;;;;;2.40;1.60;;;7.40;98.00;;;;;;5013110;28;20949;-68
2023/11/11 06:21:51;;;;;;;1.50;1.30;;;7.50;98.00;;;;;;5012854;28;20453;-69
2023/11/11 06:24:18;;;;;;;1.47;1.37;;;7.50;98.00;;;;;;5012801;28;20472;-69
2023/11/11 06:26:45;;;;;;;3.70;1.67;;;7.40;98.00;;;;;;5012828;28;20459;-69
2023/11/11 06:29:14;;;;;;;2.73;1.60;;;7.30;98.00;;;;;;5012816;28;20448;-69
2023/11/11 06:31:41;;;;;;;2.30;1.70;;;7.40;98.00;;;;;;5013470;28;20451;-69
2023/11/11 06:34:09;;;;;;;2.13;1.53;;;7.40;98.00;;;;;;5012790;28;20501;-69
2023/11/11 06:36:36;;;;;;;4.00;1.77;;;7.40;98.00;;;;;;5013371;28;20494;-69
2023/11/11 06:39:03;;;;;;;2.10;1.47;;;7.40;98.00;;;;;;5012039;28;20460;-69
2023/11/11 06:41:32;;;;;;;4.17;1.73;;;7.40;98.00;;;;;;5012514;28;20455;-68
2023/11/11 06:43:59;;;;;;;2.60;1.87;;;7.40;98.00;;;;;;5012413;28;20465;-69
2023/11/11 06:46:27;;;;;;;1.87;1.80;;;7.40;98.00;;;;;;5012511;28;20738;-69
2023/11/11 06:48:58;;;;;;;2.00;1.80;;;7.40;98.00;;;;;;5012340;28;20512;-69
2023/11/11 06:51:27;;;;;;;2.40;1.60;;;7.40;98.00;;;;;;5011070;28;20817;-69
2023/11/11 06:53:55;;;;;;;2.03;1.53;;;7.40;98.00;;;;;;5012311;28;20546;-69
2023/11/11 06:56:23;;;;;;;2.60;1.80;;;7.50;98.00;;;;;;5012262;28;20459;-68
2023/11/11 06:58:51;;;;;;;2.67;1.60;;;7.50;98.00;;;;;;5012114;28;20453;-63
2023/11/11 07:01:22;;;;;;;2.47;1.87;;;7.50;98.00;;;;;;5012237;28;20467;-64
2023/11/11 07:03:51;;;;;;;3.30;1.80;;;7.60;98.00;;;;;;5012073;28;20451;-63
2023/11/11 07:06:22;;;;;;;2.27;1.70;;;7.50;98.00;;;;;;5012017;28;20466;-64
2023/11/11 07:08:51;;;;;;;2.17;1.67;;;7.50;98.00;;;;;;5011995;28;20456;-64
2023/11/11 07:11:19;;;;;;;2.90;1.93;;;7.60;98.00;;;;;;5011995;28;21036;-63
2023/11/11 07:13:48;;;;;;;2.13;1.70;;;7.60;98.00;;;;;;5012046;28;20484;-63
2023/11/11 07:16:17;;;;;;;2.50;1.70;;;7.50;98.00;;;;;;5012231;28;20944;-63
2023/11/11 07:18:44;;;;;;;3.90;1.80;;;7.40;98.00;;;;;;5012376;28;20497;-64
2023/11/11 07:21:21;;;;;;;2.53;1.50;;;7.50;98.00;;;;;;5012226;28;20464;-64
2023/11/11 07:23:49;;;;;;;22.23;1.83;;;7.60;98.00;;;;;;5012528;28;20505;-64
2023/11/11 07:26:17;;;;;;;2.20;1.83;;;7.50;98.00;;;;;;5012500;28;21113;-63
2023/11/11 07:28:45;;;;;;;6.20;1.67;;;7.60;98.00;;;;;;5012759;28;20455;-63
2023/11/11 07:31:15;;;;;;;3.30;1.50;;;7.40;98.00;;;;;;5012745;28;20880;-63
2023/11/11 07:33:42;;;;;;;2.10;1.67;;;7.40;98.00;;;;;;5012946;28;20484;-63
2023/11/11 07:36:12;;;;;;;3.20;1.60;;;7.40;98.00;;;;;;5013125;28;20557;-63
2023/11/11 07:38:42;;;;;;;1.70;1.50;;;7.40;98.00;;;;;;5013421;28;20540;-64
2023/11/11 07:41:10;;;;;;;5.90;1.70;;;7.40;98.00;;;;;;5014283;28;20473;-64
2023/11/11 07:43:38;;;;;;;2.57;1.53;;;7.40;98.00;;;;;;5013878;28;20871;-63
2023/11/11 07:46:06;;;;;;;2.40;1.53;;;7.40;98.00;;;;;;5013542;28;20470;-63
2023/11/11 07:48:34;;;;;;;2.20;1.50;;;7.50;98.00;;;;;;5013377;28;20468;-62
2023/11/11 07:51:02;;;;;;;1.80;1.70;;;7.50;98.00;;;;;;5013934;28;20459;-63
2023/11/11 07:53:29;;;;;;;3.90;1.53;;;7.40;98.00;;;;;;5013848;28;20483;-64
2023/11/11 07:56:02;;;;;;;2.30;1.50;;;7.40;98.00;;;;;;5013608;28;21140;-63
2023/11/11 07:58:30;;;;;;;2.03;1.47;;;7.40;98.00;;;;;;5013814;28;20455;-63
2023/11/11 08:00:57;;;;;;;1.83;1.40;;;7.40;98.00;;;;;;5013948;28;20519;-63
2023/11/11 08:03:26;;;;;;;1.80;1.40;;;7.20;98.00;;;;;;5013483;28;20466;-63
2023/11/11 08:05:53;;;;;;;1.40;1.27;;;7.20;98.00;;;;;;5013752;28;20456;-63
2023/11/11 08:08:20;;;;;;;2.00;1.43;;;7.20;98.00;;;;;;5013854;28;20459;-63
2023/11/11 08:10:48;;;;;;;2.33;1.40;;;7.10;98.00;;;;;;5012985;28;20466;-63
2023/11/11 08:13:18;;;;;;;2.83;1.70;;;7.10;98.00;;;;;;5013547;28;20971;-63
2023/11/11 08:15:46;;;;;;;1.90;1.57;;;7.10;98.00;;;;;;5013257;28;20884;-63
2023/11/11 08:18:13;;;;;;;1.63;1.30;;;7.10;98.00;;;;;;5011366;28;20538;-63
2023/11/11 08:20:41;;;;;;;1.87;1.40;;;7.20;98.00;;;;;;5011874;28;20454;-64
2023/11/11 08:23:09;;;;;;;1.87;1.40;;;7.20;98.00;;;;;;5011473;28;20550;-63
2023/11/11 08:25:37;;;;;;;3.17;1.60;;;7.20;98.00;;;;;;5011174;28;20823;-64
2023/11/11 08:28:05;;;;;;;2.60;1.63;;;7.20;98.00;;;;;;5011226;28;20481;-64
2023/11/11 08:30:34;;;;;;;2.07;1.47;;;7.30;98.00;;;;;;5011136;28;20484;-64
2023/11/11 08:33:02;;;;;;;2.10;1.50;;;7.30;98.00;;;;;;5011100;28;20503;-64
2023/11/11 08:35:30;;;;;;;1.90;1.67;;;7.30;98.00;;;;;;5011087;28;20521;-64
2023/11/11 08:38:24;;;;;;;3.40;1.60;;;7.30;98.00;;;;;;5011054;28;20538;-64
2023/11/11 08:40:51;;;;;;;1.80;1.50;;;7.40;98.00;;;;;;5009374;28;20460;-64
2023/11/11 08:43:23;;;;;;;2.57;1.60;;;7.40;98.00;;;;;;5009946;28;20456;-64
2023/11/11 08:45:51;;;;;;;2.33;1.73;;;7.40;98.00;;;;;;5010882;28;20535;-64
2023/11/11 08:48:18;;;;;;;1.80;1.60;;;7.50;98.00;;;;;;5010965;28;20938;-63
2023/11/11 08:50:45;;;;;;;2.83;1.70;;;7.50;98.00;;;;;;5010911;28;20457;-64
2023/11/11 08:53:12;;;;;;;2.47;1.70;;;7.50;98.00;;;;;;5011155;28;20448;-63
2023/11/11 08:55:39;;;;;;;2.53;1.70;;;7.50;98.00;;;;;;5011049;28;20847;-63
2023/11/11 08:58:07;;;;;;;2.17;1.60;;;7.50;98.00;;;;;;5010843;28;20469;-63
2023/11/11 09:00:35;;;;;;;1.80;1.73;;;7.50;98.00;;;;;;5013582;28;20856;-64
2023/11/11 09:03:04;;;;;;;1.70;1.60;;;7.60;98.00;;;;;;5014412;28;20498;-64
2023/11/11 09:05:32;;;;;;;2.17;1.50;;;7.80;98.00;;;;;;5014307;28;20464;-63
2023/11/11 09:07:59;;;;;;;3.40;1.80;;;7.80;98.00;;;;;;5014250;28;20453;-64
2023/11/11 09:10:27;;;;;;;2.53;1.73;;;7.80;98.00;;;;;;5014406;28;21010;-63
2023/11/11 09:12:55;;;;;;;2.40;1.63;;;7.80;98.00;;;;;;5014212;28;20512;-64
2023/11/11 09:15:23;;;;;;;8.73;1.70;;;7.80;98.00;;;;;;5014135;28;20581;-63
2023/11/11 09:17:51;;;;;;;2.27;1.70;;;7.90;98.00;;;;;;5014078;28;20455;-64
2023/11/11 09:20:21;;;;;;;3.13;1.80;;;7.90;98.00;;;;;;5014177;28;20463;-67
2023/11/11 09:22:49;;;;;;;2.50;1.63;;;8.00;98.00;;;;;;5013878;28;20496;-68
2023/11/11 09:25:16;;;;;;;4.13;1.70;;;8.30;98.00;;;;;;5014013;28;20456;-64
2023/11/11 09:27:58;;;;;;;1.97;1.80;;;8.50;98.00;;;;;;5013908;28;20481;-64
2023/11/11 09:30:25;;;;;;;3.80;1.80;;;8.50;98.00;;;;;;5013975;28;20458;-64
2023/11/11 09:32:53;;;;;;;2.37;1.80;;;8.40;98.00;;;;;;5013974;28;20451;-64
2023/11/11 09:35:22;;;;;;;2.40;1.70;;;8.30;98.00;;;;;;5014184;28;20576;-64
2023/11/11 09:37:49;;;;;;;1.97;1.60;;;8.30;98.00;;;;;;5012228;28;21008;-65
2023/11/11 09:40:16;;;;;;;2.70;1.80;;;8.30;98.00;;;;;;5013719;28;20537;-65
2023/11/11 09:42:43;;;;;;;2.60;1.77;;;8.30;98.00;;;;;;5013420;28;20469;-65
2023/11/11 09:45:13;;;;;;;3.40;2.00;;;8.30;98.00;;;;;;5013401;28;20506;-64
2023/11/11 09:47:42;;;;;;;2.90;1.80;;;8.30;98.00;;;;;;5013370;28;20466;-64
2023/11/11 09:50:10;;;;;;;4.37;2.00;;;8.30;98.00;;;;;;5012666;28;20459;-65
2023/11/11 09:52:40;;;;;;;2.83;2.20;;;8.30;98.00;;;;;;5012721;28;20551;-65
2023/11/11 09:55:13;;;;;;;3.07;2.10;;;8.40;98.00;;;;;;5013214;28;20543;-65
2023/11/11 09:57:40;;;;;;;3.00;2.20;;;8.40;98.00;;;;;;5013371;28;20456;-64
2023/11/11 10:00:11;;;;;;;4.07;2.10;;;8.30;98.00;;;;;;5013255;28;20462;-64
2023/11/11 10:02:39;;;;;;;3.73;2.10;;;8.30;98.00;;;;;;5013156;28;20457;-64
2023/11/11 10:05:09;;;;;;;2.83;1.97;;;8.30;98.00;;;;;;5013265;28;20861;-65
2023/11/11 10:07:37;;;;;;;2.77;1.90;;;8.40;98.00;;;;;;5013455;28;20449;-65
2023/11/11 10:10:08;;;;;;;3.67;1.90;;;8.60;98.00;;;;;;5012837;28;20477;-65
2023/11/11 10:12:36;;;;;;;3.20;1.77;;;8.90;98.00;;;;;;5013059;28;20456;-65
2023/11/11 10:15:04;;;;;;;2.83;2.00;;;9.00;98.00;;;;;;5013155;28;20492;-65
2023/11/11 10:17:37;;;;;;;3.37;2.00;;;9.10;98.00;;;;;;5013152;28;20461;-65
2023/11/11 10:20:10;;;;;;;1.93;1.70;;;9.10;98.00;;;;;;5012987;28;20453;-65
2023/11/11 10:22:43;;;;;;;3.70;2.00;;;9.00;98.00;;;;;;5013175;28;20504;-65
2023/11/11 10:25:12;;;;;;;2.07;1.67;;;9.10;98.00;;;;;;5013075;28;20935;-65
2023/11/11 10:27:39;;;;;;;3.20;2.00;;;9.20;98.00;;;;;;5013037;28;20963;-65
2023/11/11 10:30:18;;;;;;;3.00;1.70;;;9.10;98.00;;;;;;5012970;28;20492;-65
2023/11/11 10:32:48;;;;;;;3.27;2.10;;;9.10;98.00;;;;;;5013019;28;21042;-65
2023/11/11 10:35:16;;;;;;;3.03;1.90;;;9.20;98.00;;;;;;5011626;28;20490;-65
2023/11/11 10:37:47;;;;;;;2.00;1.80;;;9.40;98.00;;;;;;5011563;28;20450;-65
2023/11/11 10:40:16;;;;;;;2.80;1.90;;;9.60;98.00;;;;;;5013052;28;20454;-65
2023/11/11 10:42:45;;;;;;;3.67;1.83;;;9.70;98.00;;;;;;5012731;28;20823;-65
2023/11/11 10:45:15;;;;;;;2.90;1.80;;;9.70;98.00;;;;;;5012712;28;21036;-65
2023/11/11 10:47:43;;;;;;;2.90;1.80;;;9.70;98.00;;;;;;5012712;28;21047;-65
2023/11/11 10:50:11;;;;;;;2.60;1.60;;;9.80;98.00;;;;;;5012702;28;20890;-65
2023/11/11 10:52:40;;;;;;;1.80;1.53;;;9.60;98.00;;;;;;5012771;28;20957;-65
2023/11/11 10:55:10;;;;;;;2.43;1.50;;;9.50;98.00;;;;;;5012297;28;20574;-65
2023/11/11 10:57:40;;;;;;;2.10;1.60;;;9.50;98.00;;;;;;5012655;28;20547;-64
2023/11/11 11:00:16;;;;;;;1.87;1.57;;;9.40;98.00;;;;;;5012345;28;20458;-65
2023/11/11 11:02:46;;;;;;;2.13;1.60;;;9.30;98.00;;;;;;5012499;28;20520;-64
2023/11/11 11:05:18;;;;;;;2.40;1.67;;;9.20;98.00;;;;;;5012459;28;20560;-65
2023/11/11 11:07:53;;;;;;;3.93;1.77;;;9.10;98.00;;;;;;5012219;28;20452;-65
2023/11/11 11:10:27;;;;;;;1.90;1.60;;;9.00;98.00;;;;;;5012002;28;20553;-65
2023/11/11 11:12:58;;;;;;;2.87;2.00;;;9.10;98.00;;;;;;5012216;28;20459;-65
2023/11/11 11:15:26;;;;;;;1.80;1.60;;;9.30;98.00;;;;;;5012192;28;20527;-65
2023/11/11 11:17:54;;;;;;;2.70;1.57;;;9.50;98.00;;;;;;5011415;28;20502;-65
2023/11/11 11:20:24;;;;;;;1.50;1.50;;;9.60;98.00;;;;;;5011142;28;20467;-65
2023/11/11 11:23:04;;;;;;;2.27;1.80;;;9.60;98.00;;;;;;5011508;28;20498;-65
2023/11/11 11:25:33;;;;;;;1.90;1.47;;;9.60;98.00;;;;;;5012207;28;20831;-65
2023/11/11 11:28:25;;;;;;;1.60;1.47;;;9.60;98.00;;;;;;5010662;28;20469;-65
2023/11/11 11:30:55;;;;;;;1.50;1.50;;;9.80;98.00;;;;;;5012015;28;20489;-65
2023/11/11 11:33:25;;;;;;;2.43;1.90;;;9.70;98.00;;;;;;5011574;28;20465;-64
2023/11/11 11:35:56;;;;;;;2.30;1.70;;;9.70;98.00;;;;;;5012129;28;20914;-65
2023/11/11 11:38:28;;;;;;;6.17;1.83;;;9.80;98.00;;;;;;5010355;28;20460;-65
2023/11/11 11:41:06;;;;;;;9.10;1.73;;;9.90;98.00;;;;;;5011356;28;20470;-65
2023/11/11 11:43:34;;;;;;;2.37;1.67;;;9.80;98.00;;;;;;5011831;28;20611;-65
2023/11/11 11:46:02;;;;;;;2.73;1.60;;;9.80;98.00;;;;;;5011445;28;20448;-65
2023/11/11 11:48:33;;;;;;;3.57;1.87;;;9.80;98.00;;;;;;5011742;28;20460;-65
2023/11/11 11:51:06;;;;;;;2.80;1.60;;;9.90;98.00;;;;;;5011865;28;20459;-65
2023/11/11 11:53:33;;;;;;;2.30;1.87;;;10.00;98.00;;;;;;5011658;28;20491;-65
2023/11/11 11:56:01;;;;;;;2.63;1.90;;;10.10;98.00;;;;;;5010073;28;20480;-65
2023/11/11 11:58:29;;;;;;;1.90;1.50;;;10.50;98.00;;;;;;5011426;28;20493;-65
2023/11/11 12:00:56;;;;;;;1.77;1.57;;;10.60;98.00;;;;;;5011304;28;20458;-65
2023/11/11 12:03:23;;;;;;;2.23;1.47;;;10.60;98.00;;;;;;5010385;28;20456;-65
2023/11/11 12:05:51;;;;;;;1.80;1.47;;;10.50;98.00;;;;;;5010417;28;20466;-65
2023/11/11 12:08:19;;;;;;;2.70;1.80;;;10.20;98.00;;;;;;5011383;28;20459;-65
2023/11/11 12:10:47;;;;;;;1.70;1.40;;;10.10;98.00;;;;;;5011201;28;20557;-65
2023/11/11 12:13:15;;;;;;;2.60;1.50;;;10.00;98.00;;;;;;5011230;28;20464;-65
2023/11/11 12:15:52;;;;;;;2.27;1.70;;;9.90;98.00;;;;;;5012062;28;21025;-65
2023/11/11 12:18:34;;;;;;;1.70;1.50;;;9.80;98.00;;;;;;5011913;28;20510;-65
2023/11/11 12:21:01;;;;;;;6.20;1.63;;;9.60;98.00;;;;;;5010291;28;20514;-65
2023/11/11 12:23:29;;;;;;;2.90;2.00;;;9.50;98.00;;;;;;5011898;28;20496;-65
2023/11/11 12:25:56;;;;;;;1.70;1.50;;;9.50;98.00;;;;;;5011211;28;20874;-65
2023/11/11 12:28:28;;;;;;;2.47;1.80;;;9.50;98.00;;;;;;5011108;28;20961;-65
2023/11/11 12:31:04;;;;;;;2.90;1.77;;;9.50;98.00;;;;;;5011425;28;20517;-65
2023/11/11 12:33:32;;;;;;;2.47;1.80;;;9.50;98.00;;;;;;5011670;28;20460;-65
2023/11/11 12:36:00;;;;;;;4.40;2.07;;;9.50;98.00;;;;;;5014541;28;20522;-65
2023/11/11 12:38:29;;;;;;;2.50;1.97;;;9.50;98.00;;;;;;5014970;28;20811;-65
2023/11/11 12:40:58;;;;;;;3.37;2.00;;;9.40;98.00;;;;;;5014842;28;20473;-65
2023/11/11 12:43:27;;;;;;;2.60;1.80;;;9.30;98.00;;;;;;4997765;28;20449;-65
2023/11/11 12:45:55;;;;;;;2.77;2.00;;;9.30;98.00;;;;;;5014781;28;20478;-65
2023/11/11 12:48:23;;;;;;;3.50;2.20;;;9.40;98.00;;;;;;5013627;28;21093;-65
2023/11/11 12:50:53;;;;;;;9.00;2.40;;;9.30;98.00;;;;;;5014197;28;20534;-65
2023/11/11 12:53:20;;;;;;;2.73;1.73;;;9.30;98.00;;;;;;5014881;28;20491;-64
2023/11/11 12:55:48;;;;;;;2.63;1.80;;;9.00;98.00;;;;;;5014631;28;20581;-65
2023/11/11 12:58:26;;;;;;;3.73;1.97;;;8.50;98.00;;;;;;5014488;28;20460;-65
2023/11/11 13:00:57;;;;;;;3.80;1.90;;;8.20;98.00;;;;;;5014392;28;20478;-65
2023/11/11 13:03:27;;;;;;;3.70;2.10;;;7.90;98.00;;;;;;5014161;28;20459;-64
2023/11/11 13:05:55;;;;;;;3.90;2.07;;;7.80;98.00;;;;;;5014756;28;20515;-64
2023/11/11 13:08:23;;;;;;;2.30;1.80;;;7.70;98.00;;;;;;5014885;28;20456;-65